»·PEaware :: N973DM KWHP-KBFL

N973DM :: KWHP-KBFL

FLIGHT INFORMATION

Flight Status: Arrived
Operator: Privately registered:
United States
More flights under this callsign
Pilot: Anonymous 1328 (1328)
Aircraft: CIRRUS SR-20
(SR20)
More flights by this aircraft type
Origin: KWHP Whiteman
United States
Destination: KBFL Meadows
United States
More flights between these airports :: More routes between these airports
Route: +VNY V186 FIM V299 GMN FASTO1
File this flight plan on PilotEdge
Remarks: WILL HAVE FULL IFR TO MIN ON ROUTE.
Altitude:
(Current/Filed)
10,000ft
Speed:
(Current/Filed)
150kts
Departed: 30-Oct-13 06:12 PM
Arrived: 30-Oct-13 07:01 PM
Distance/Time
Traveled:
78nm/0:49
Distance/Time
To Go:
Arrived

Flight Plot

Page will automatically refresh every two minutes.

Flight plan parsing failed; only flown route is shown


Map Options




Map Legend


Flown Route
Filed Route
Departure Airport
Arrival Airport
Navaid (VOR, NDB)
Fix

Horizontal Profiles

Position Reports

Time Latitude Longitude Heading Altitude Ground
Speed
30-Oct-13 17:55 34.263833 -118.417559 228 1005ft 0kts
30-Oct-13 17:56 34.263833 -118.417559 228 1005ft 0kts
30-Oct-13 17:57 34.263833 -118.417559 228 1005ft 0kts
30-Oct-13 17:58 34.263833 -118.417559 228 1005ft 0kts
30-Oct-13 17:59 34.263833 -118.417559 228 1005ft 0kts
30-Oct-13 18:00 34.263833 -118.417559 228 1005ft 0kts
30-Oct-13 18:01 34.263833 -118.417559 228 1005ft 0kts
30-Oct-13 18:02 34.263833 -118.417559 228 1005ft 0kts
30-Oct-13 18:03 34.263833 -118.417559 228 1005ft 0kts
30-Oct-13 18:04 34.263833 -118.417559 228 1005ft 0kts
30-Oct-13 18:05 34.263833 -118.417559 228 1005ft 0kts
30-Oct-13 18:06 34.263833 -118.417559 228 1005ft 0kts
30-Oct-13 18:07 34.263833 -118.417559 228 1005ft 0kts
30-Oct-13 18:08 34.263833 -118.417559 228 1005ft 0kts
30-Oct-13 18:09 34.263833 -118.417559 228 1005ft 0kts
30-Oct-13 18:10 34.259369 -118.412824 139 1005ft 45kts
30-Oct-13 18:11 34.255980 -118.409333 136 1005ft 0kts
30-Oct-13 18:12 34.255980 -118.409333 136 1005ft 0kts
30-Oct-13 18:13 34.255549 -118.408936 155 1005ft 0kts
30-Oct-13 18:14 34.255549 -118.408936 155 1005ft 0kts
30-Oct-13 18:15 34.255242 -118.408903 199 1005ft 6kts
30-Oct-13 18:16 34.261972 -118.416347 320 1038ft 95kts
30-Oct-13 18:17 34.280334 -118.437610 300 1730ft 111kts
30-Oct-13 18:18 34.285866 -118.471702 279 2606ft 102kts
30-Oct-13 18:19 34.267086 -118.485723 164 3107ft 114kts
30-Oct-13 18:20 34.239055 -118.486396 186 3947ft 99kts
30-Oct-13 18:21 34.215641 -118.503367 241 4665ft 103kts
30-Oct-13 18:22 34.228234 -118.534634 284 5290ft 110kts
30-Oct-13 18:23 34.240212 -118.570244 289 5846ft 117kts
30-Oct-13 18:24 34.253604 -118.606244 290 6402ft 118kts
30-Oct-13 18:25 34.267278 -118.642657 290 6920ft 119kts
30-Oct-13 18:26 34.281182 -118.679602 290 7423ft 120kts
30-Oct-13 18:27 34.295107 -118.716713 290 7888ft 121kts
30-Oct-13 18:28 34.309308 -118.754606 290 8332ft 122kts
30-Oct-13 18:29 34.323664 -118.793096 291 8754ft 123kts
30-Oct-13 18:30 34.338313 -118.831989 291 9152ft 124kts
30-Oct-13 18:31 34.352915 -118.870990 290 9522ft 125kts
30-Oct-13 18:32 34.385361 -118.880293 5 9866ft 128kts
30-Oct-13 18:33 34.423620 -118.878490 4 10005ft 143kts
30-Oct-13 18:34 34.466192 -118.876593 4 10003ft 154kts
30-Oct-13 18:35 34.510916 -118.874608 4 10002ft 159kts
30-Oct-13 18:36 34.556513 -118.872596 4 9989ft 159kts
30-Oct-13 18:37 34.602158 -118.870557 4 9904ft 164kts
30-Oct-13 18:38 34.648605 -118.868498 4 9927ft 160kts
30-Oct-13 18:39 34.694509 -118.866450 4 9899ft 159kts
30-Oct-13 18:40 34.739992 -118.864418 4 9899ft 160kts
30-Oct-13 18:41 34.785485 -118.862384 4 9895ft 161kts
30-Oct-13 18:42 34.831062 -118.861509 2 9895ft 160kts
30-Oct-13 18:43 34.876354 -118.861495 2 9897ft 160kts
30-Oct-13 18:44 34.921884 -118.861473 2 9899ft 160kts
30-Oct-13 18:45 34.967645 -118.861772 1 9900ft 160kts
30-Oct-13 18:46 35.005707 -118.862131 1 9900ft 160kts
30-Oct-13 18:47 35.059799 -118.862616 1 9756ft 170kts
30-Oct-13 18:48 35.103485 -118.862749 1 8999ft 181kts
30-Oct-13 18:49 35.151581 -118.862896 1 8053ft 158kts
30-Oct-13 18:50 35.195830 -118.862995 1 7120ft 151kts
30-Oct-13 18:51 35.238063 -118.863034 1 6189ft 143kts
30-Oct-13 18:52 35.278197 -118.869449 316 4978ft 152kts
30-Oct-13 18:53 35.305372 -118.901507 313 4780ft 140kts
30-Oct-13 18:54 35.338629 -118.941347 314 3018ft 152kts
30-Oct-13 18:55 35.364969 -118.973071 314 2433ft 123kts
30-Oct-13 18:56 35.387837 -119.000679 314 1779ft 122kts
30-Oct-13 18:57 35.411285 -119.028509 313 1160ft 115kts
30-Oct-13 18:58 35.430701 -119.052383 313 570ft 94kts
30-Oct-13 18:59 35.441530 -119.064976 351 509ft 13kts

Navigation Log

Ident Type
Flight plan parsing failed, navigation log unavailable